sensor_id;sensor_type;location;lat;lon;timestamp;P1;durP1;ratioP1;P2;durP2;ratioP2
54123;SDS011;55741;53.252;5.788;2022-07-05T00:01:07;5.85;;;4.15;;
54123;SDS011;55741;53.252;5.788;2022-07-05T00:03:32;9.70;;;4.43;;
54123;SDS011;55741;53.252;5.788;2022-07-05T00:05:58;9.18;;;4.57;;
54123;SDS011;55741;53.252;5.788;2022-07-05T00:08:24;8.80;;;4.32;;
54123;SDS011;55741;53.252;5.788;2022-07-05T00:10:50;5.57;;;4.20;;
54123;SDS011;55741;53.252;5.788;2022-07-05T00:13:16;6.30;;;4.45;;
54123;SDS011;55741;53.252;5.788;2022-07-05T00:15:42;5.85;;;4.70;;
54123;SDS011;55741;53.252;5.788;2022-07-05T00:18:08;9.07;;;4.18;;
54123;SDS011;55741;53.252;5.788;2022-07-05T00:20:34;5.93;;;3.97;;
54123;SDS011;55741;53.252;5.788;2022-07-05T00:23:00;6.63;;;4.07;;
54123;SDS011;55741;53.252;5.788;2022-07-05T00:25:26;8.70;;;4.05;;
54123;SDS011;55741;53.252;5.788;2022-07-05T00:27:52;8.85;;;4.13;;
54123;SDS011;55741;53.252;5.788;2022-07-05T00:30:21;7.30;;;4.13;;
54123;SDS011;55741;53.252;5.788;2022-07-05T00:32:46;5.60;;;3.78;;
54123;SDS011;55741;53.252;5.788;2022-07-05T00:35:12;8.07;;;4.28;;
54123;SDS011;55741;53.252;5.788;2022-07-05T00:37:38;5.05;;;3.85;;
54123;SDS011;55741;53.252;5.788;2022-07-05T00:40:04;6.25;;;4.13;;
54123;SDS011;55741;53.252;5.788;2022-07-05T00:42:33;5.43;;;3.78;;
54123;SDS011;55741;53.252;5.788;2022-07-05T00:45:02;5.30;;;3.60;;
54123;SDS011;55741;53.252;5.788;2022-07-05T00:47:29;8.52;;;4.15;;
54123;SDS011;55741;53.252;5.788;2022-07-05T00:49:55;7.95;;;4.20;;
54123;SDS011;55741;53.252;5.788;2022-07-05T00:52:21;4.53;;;3.53;;
54123;SDS011;55741;53.252;5.788;2022-07-05T00:54:48;5.45;;;4.47;;
54123;SDS011;55741;53.252;5.788;2022-07-05T00:57:14;7.10;;;3.60;;
54123;SDS011;55741;53.252;5.788;2022-07-05T00:59:41;7.07;;;3.85;;
54123;SDS011;55741;53.252;5.788;2022-07-05T01:02:06;4.95;;;3.78;;
54123;SDS011;55741;53.252;5.788;2022-07-05T01:04:32;6.22;;;3.70;;
54123;SDS011;55741;53.252;5.788;2022-07-05T01:06:58;7.25;;;3.92;;
54123;SDS011;55741;53.252;5.788;2022-07-05T01:09:25;5.20;;;3.42;;
54123;SDS011;55741;53.252;5.788;2022-07-05T01:11:51;4.97;;;4.07;;
54123;SDS011;55741;53.252;5.788;2022-07-05T01:14:20;6.40;;;4.00;;
54123;SDS011;55741;53.252;5.788;2022-07-05T01:16:48;8.82;;;3.88;;
54123;SDS011;55741;53.252;5.788;2022-07-05T01:19:15;6.07;;;3.80;;
54123;SDS011;55741;53.252;5.788;2022-07-05T01:21:43;5.47;;;3.50;;
54123;SDS011;55741;53.252;5.788;2022-07-05T01:24:11;7.45;;;3.60;;
54123;SDS011;55741;53.252;5.788;2022-07-05T01:26:38;4.78;;;3.40;;
54123;SDS011;55741;53.252;5.788;2022-07-05T01:29:05;6.28;;;3.83;;
54123;SDS011;55741;53.252;5.788;2022-07-05T01:31:32;5.82;;;3.30;;
54123;SDS011;55741;53.252;5.788;2022-07-05T01:33:58;4.65;;;3.45;;
54123;SDS011;55741;53.252;5.788;2022-07-05T01:36:24;6.22;;;3.28;;
54123;SDS011;55741;53.252;5.788;2022-07-05T01:38:50;8.52;;;4.40;;
54123;SDS011;55741;53.252;5.788;2022-07-05T01:41:16;6.43;;;3.95;;
54123;SDS011;55741;53.252;5.788;2022-07-05T01:43:42;6.75;;;3.60;;
54123;SDS011;55741;53.252;5.788;2022-07-05T01:46:09;7.05;;;3.78;;
54123;SDS011;55741;53.252;5.788;2022-07-05T01:48:38;6.85;;;3.42;;
54123;SDS011;55741;53.252;5.788;2022-07-05T01:51:07;5.50;;;3.67;;
54123;SDS011;55741;53.252;5.788;2022-07-05T01:53:39;5.90;;;3.50;;
54123;SDS011;55741;53.252;5.788;2022-07-05T01:56:08;6.45;;;3.30;;
54123;SDS011;55741;53.252;5.788;2022-07-05T01:58:34;7.63;;;3.55;;
54123;SDS011;55741;53.252;5.788;2022-07-05T02:01:00;6.32;;;3.65;;
54123;SDS011;55741;53.252;5.788;2022-07-05T02:03:26;5.20;;;3.80;;
54123;SDS011;55741;53.252;5.788;2022-07-05T02:05:52;5.68;;;3.28;;
54123;SDS011;55741;53.252;5.788;2022-07-05T02:08:19;6.97;;;3.20;;
54123;SDS011;55741;53.252;5.788;2022-07-05T02:10:45;7.03;;;2.97;;
54123;SDS011;55741;53.252;5.788;2022-07-05T02:13:11;8.60;;;3.70;;
54123;SDS011;55741;53.252;5.788;2022-07-05T02:15:38;6.30;;;3.95;;
54123;SDS011;55741;53.252;5.788;2022-07-05T02:18:05;11.20;;;3.85;;
54123;SDS011;55741;53.252;5.788;2022-07-05T02:20:33;7.18;;;3.20;;
54123;SDS011;55741;53.252;5.788;2022-07-05T02:23:00;4.25;;;3.17;;
54123;SDS011;55741;53.252;5.788;2022-07-05T02:25:26;5.38;;;3.40;;
54123;SDS011;55741;53.252;5.788;2022-07-05T02:27:52;6.25;;;3.42;;
54123;SDS011;55741;53.252;5.788;2022-07-05T02:30:22;5.35;;;3.20;;
54123;SDS011;55741;53.252;5.788;2022-07-05T02:32:48;6.32;;;3.60;;
54123;SDS011;55741;53.252;5.788;2022-07-05T02:35:14;8.90;;;3.38;;
54123;SDS011;55741;53.252;5.788;2022-07-05T02:37:40;4.93;;;3.28;;
54123;SDS011;55741;53.252;5.788;2022-07-05T02:40:07;8.13;;;3.63;;
54123;SDS011;55741;53.252;5.788;2022-07-05T02:42:34;5.55;;;3.13;;
54123;SDS011;55741;53.252;5.788;2022-07-05T02:44:59;6.00;;;3.45;;
54123;SDS011;55741;53.252;5.788;2022-07-05T02:47:30;4.85;;;3.08;;
54123;SDS011;55741;53.252;5.788;2022-07-05T02:50:04;6.88;;;3.15;;
54123;SDS011;55741;53.252;5.788;2022-07-05T02:52:34;5.82;;;2.90;;
54123;SDS011;55741;53.252;5.788;2022-07-05T02:55:01;7.28;;;3.28;;
54123;SDS011;55741;53.252;5.788;2022-07-05T02:57:28;5.10;;;3.20;;
54123;SDS011;55741;53.252;5.788;2022-07-05T02:59:54;5.18;;;2.95;;
54123;SDS011;55741;53.252;5.788;2022-07-05T03:02:20;4.45;;;3.17;;
54123;SDS011;55741;53.252;5.788;2022-07-05T03:04:46;8.65;;;3.10;;
54123;SDS011;55741;53.252;5.788;2022-07-05T03:07:12;7.95;;;3.47;;
54123;SDS011;55741;53.252;5.788;2022-07-05T03:09:38;6.55;;;3.60;;
54123;SDS011;55741;53.252;5.788;2022-07-05T03:12:04;4.90;;;2.95;;
54123;SDS011;55741;53.252;5.788;2022-07-05T03:14:31;5.35;;;3.40;;
54123;SDS011;55741;53.252;5.788;2022-07-05T03:16:57;6.97;;;3.60;;
54123;SDS011;55741;53.252;5.788;2022-07-05T03:19:23;4.75;;;3.38;;
54123;SDS011;55741;53.252;5.788;2022-07-05T03:21:48;5.43;;;3.22;;
54123;SDS011;55741;53.252;5.788;2022-07-05T03:24:15;8.18;;;2.85;;
54123;SDS011;55741;53.252;5.788;2022-07-05T03:26:40;7.50;;;3.25;;
54123;SDS011;55741;53.252;5.788;2022-07-05T03:29:07;6.72;;;2.80;;
54123;SDS011;55741;53.252;5.788;2022-07-05T03:31:33;7.10;;;2.88;;
54123;SDS011;55741;53.252;5.788;2022-07-05T03:33:59;5.63;;;2.55;;
54123;SDS011;55741;53.252;5.788;2022-07-05T03:36:25;9.05;;;3.10;;
54123;SDS011;55741;53.252;5.788;2022-07-05T03:38:50;6.10;;;3.25;;
54123;SDS011;55741;53.252;5.788;2022-07-05T03:41:17;7.43;;;2.67;;
54123;SDS011;55741;53.252;5.788;2022-07-05T03:43:42;12.77;;;3.95;;
54123;SDS011;55741;53.252;5.788;2022-07-05T03:46:08;5.63;;;2.97;;
54123;SDS011;55741;53.252;5.788;2022-07-05T03:48:36;4.68;;;3.08;;
54123;SDS011;55741;53.252;5.788;2022-07-05T03:51:02;5.20;;;3.17;;
54123;SDS011;55741;53.252;5.788;2022-07-05T03:53:28;7.28;;;3.38;;
54123;SDS011;55741;53.252;5.788;2022-07-05T03:55:53;4.57;;;2.65;;
54123;SDS011;55741;53.252;5.788;2022-07-05T03:58:21;7.90;;;2.67;;
54123;SDS011;55741;53.252;5.788;2022-07-05T04:00:47;6.78;;;3.03;;
54123;SDS011;55741;53.252;5.788;2022-07-05T04:03:13;7.85;;;3.10;;
54123;SDS011;55741;53.252;5.788;2022-07-05T04:05:38;5.35;;;2.90;;
54123;SDS011;55741;53.252;5.788;2022-07-05T04:08:04;6.18;;;2.95;;
54123;SDS011;55741;53.252;5.788;2022-07-05T04:10:30;6.53;;;3.00;;
54123;SDS011;55741;53.252;5.788;2022-07-05T04:12:56;6.72;;;2.97;;
54123;SDS011;55741;53.252;5.788;2022-07-05T04:15:22;7.53;;;3.05;;
54123;SDS011;55741;53.252;5.788;2022-07-05T04:17:55;9.80;;;3.03;;
54123;SDS011;55741;53.252;5.788;2022-07-05T04:20:22;6.00;;;2.70;;
54123;SDS011;55741;53.252;5.788;2022-07-05T04:22:51;6.70;;;2.53;;
54123;SDS011;55741;53.252;5.788;2022-07-05T04:25:17;12.02;;;2.65;;
54123;SDS011;55741;53.252;5.788;2022-07-05T04:27:44;7.13;;;2.60;;
54123;SDS011;55741;53.252;5.788;2022-07-05T04:30:11;8.98;;;2.60;;
54123;SDS011;55741;53.252;5.788;2022-07-05T04:32:38;5.10;;;2.63;;
54123;SDS011;55741;53.252;5.788;2022-07-05T04:35:04;6.70;;;2.75;;
54123;SDS011;55741;53.252;5.788;2022-07-05T04:37:32;6.57;;;2.38;;
54123;SDS011;55741;53.252;5.788;2022-07-05T04:39:58;10.15;;;2.47;;
54123;SDS011;55741;53.252;5.788;2022-07-05T04:42:24;7.13;;;2.30;;
54123;SDS011;55741;53.252;5.788;2022-07-05T04:44:49;7.65;;;2.70;;
54123;SDS011;55741;53.252;5.788;2022-07-05T04:47:15;7.53;;;2.25;;
54123;SDS011;55741;53.252;5.788;2022-07-05T04:49:43;8.60;;;2.47;;
54123;SDS011;55741;53.252;5.788;2022-07-05T04:52:09;4.50;;;2.10;;
54123;SDS011;55741;53.252;5.788;2022-07-05T04:54:35;5.72;;;2.47;;
54123;SDS011;55741;53.252;5.788;2022-07-05T04:57:02;8.38;;;2.78;;
54123;SDS011;55741;53.252;5.788;2022-07-05T04:59:28;6.10;;;2.60;;
54123;SDS011;55741;53.252;5.788;2022-07-05T05:01:54;9.75;;;2.28;;
54123;SDS011;55741;53.252;5.788;2022-07-05T05:04:20;6.68;;;2.80;;
54123;SDS011;55741;53.252;5.788;2022-07-05T05:06:46;10.18;;;2.70;;
54123;SDS011;55741;53.252;5.788;2022-07-05T05:09:12;4.85;;;2.20;;
54123;SDS011;55741;53.252;5.788;2022-07-05T05:11:38;8.27;;;2.33;;
54123;SDS011;55741;53.252;5.788;2022-07-05T05:14:04;9.75;;;2.40;;
54123;SDS011;55741;53.252;5.788;2022-07-05T05:16:30;8.20;;;1.92;;
54123;SDS011;55741;53.252;5.788;2022-07-05T05:18:55;9.93;;;2.65;;
54123;SDS011;55741;53.252;5.788;2022-07-05T05:21:21;5.20;;;1.63;;
54123;SDS011;55741;53.252;5.788;2022-07-05T05:23:47;7.47;;;1.92;;
54123;SDS011;55741;53.252;5.788;2022-07-05T05:26:13;6.18;;;1.80;;
54123;SDS011;55741;53.252;5.788;2022-07-05T05:28:39;10.57;;;2.28;;
54123;SDS011;55741;53.252;5.788;2022-07-05T05:31:08;6.25;;;2.35;;
54123;SDS011;55741;53.252;5.788;2022-07-05T05:33:34;7.47;;;1.85;;
54123;SDS011;55741;53.252;5.788;2022-07-05T05:36:00;8.20;;;1.70;;
54123;SDS011;55741;53.252;5.788;2022-07-05T05:38:26;9.52;;;1.80;;
54123;SDS011;55741;53.252;5.788;2022-07-05T05:40:52;6.30;;;1.83;;
54123;SDS011;55741;53.252;5.788;2022-07-05T05:43:18;9.57;;;2.13;;
54123;SDS011;55741;53.252;5.788;2022-07-05T05:45:44;7.30;;;2.30;;
54123;SDS011;55741;53.252;5.788;2022-07-05T05:48:10;11.02;;;2.05;;
54123;SDS011;55741;53.252;5.788;2022-07-05T05:50:38;9.50;;;2.20;;
54123;SDS011;55741;53.252;5.788;2022-07-05T05:53:04;7.72;;;1.60;;
54123;SDS011;55741;53.252;5.788;2022-07-05T05:55:31;7.35;;;1.88;;
54123;SDS011;55741;53.252;5.788;2022-07-05T05:57:57;8.77;;;1.60;;
54123;SDS011;55741;53.252;5.788;2022-07-05T06:00:39;11.80;;;2.53;;
54123;SDS011;55741;53.252;5.788;2022-07-05T06:03:06;11.85;;;2.10;;
54123;SDS011;55741;53.252;5.788;2022-07-05T06:05:32;10.70;;;2.00;;
54123;SDS011;55741;53.252;5.788;2022-07-05T06:07:58;8.93;;;2.30;;
54123;SDS011;55741;53.252;5.788;2022-07-05T06:12:51;10.73;;;2.60;;
54123;SDS011;55741;53.252;5.788;2022-07-05T06:15:19;11.52;;;2.47;;
54123;SDS011;55741;53.252;5.788;2022-07-05T06:17:45;10.48;;;2.15;;
54123;SDS011;55741;53.252;5.788;2022-07-05T06:20:13;5.03;;;1.60;;
54123;SDS011;55741;53.252;5.788;2022-07-05T06:22:41;7.80;;;2.40;;
54123;SDS011;55741;53.252;5.788;2022-07-05T06:25:07;15.38;;;3.10;;
54123;SDS011;55741;53.252;5.788;2022-07-05T06:27:41;7.78;;;2.40;;
54123;SDS011;55741;53.252;5.788;2022-07-05T06:30:08;8.52;;;2.10;;
54123;SDS011;55741;53.252;5.788;2022-07-05T06:32:35;8.27;;;1.90;;
54123;SDS011;55741;53.252;5.788;2022-07-05T06:35:01;10.77;;;3.13;;
54123;SDS011;55741;53.252;5.788;2022-07-05T06:37:39;7.40;;;1.83;;
54123;SDS011;55741;53.252;5.788;2022-07-05T06:40:18;8.63;;;1.52;;
54123;SDS011;55741;53.252;5.788;2022-07-05T06:42:52;7.30;;;1.77;;
54123;SDS011;55741;53.252;5.788;2022-07-05T06:45:19;9.70;;;2.22;;
54123;SDS011;55741;53.252;5.788;2022-07-05T06:47:45;8.30;;;2.17;;
54123;SDS011;55741;53.252;5.788;2022-07-05T06:50:18;9.13;;;1.70;;
54123;SDS011;55741;53.252;5.788;2022-07-05T06:52:46;16.35;;;2.63;;
54123;SDS011;55741;53.252;5.788;2022-07-05T06:55:12;7.97;;;1.60;;
54123;SDS011;55741;53.252;5.788;2022-07-05T06:57:37;5.53;;;1.55;;
54123;SDS011;55741;53.252;5.788;2022-07-05T07:00:04;11.38;;;1.95;;
54123;SDS011;55741;53.252;5.788;2022-07-05T07:02:30;12.52;;;2.20;;
54123;SDS011;55741;53.252;5.788;2022-07-05T07:04:56;11.35;;;1.88;;
54123;SDS011;55741;53.252;5.788;2022-07-05T07:07:22;8.10;;;1.67;;
54123;SDS011;55741;53.252;5.788;2022-07-05T07:10:07;6.03;;;1.60;;
54123;SDS011;55741;53.252;5.788;2022-07-05T07:12:33;4.88;;;1.70;;
54123;SDS011;55741;53.252;5.788;2022-07-05T07:14:59;9.23;;;2.05;;
54123;SDS011;55741;53.252;5.788;2022-07-05T07:17:25;8.70;;;2.00;;
54123;SDS011;55741;53.252;5.788;2022-07-05T07:19:50;5.13;;;1.83;;
54123;SDS011;55741;53.252;5.788;2022-07-05T07:22:16;6.93;;;2.05;;
54123;SDS011;55741;53.252;5.788;2022-07-05T07:24:42;8.73;;;1.77;;
54123;SDS011;55741;53.252;5.788;2022-07-05T07:27:08;5.72;;;1.58;;
54123;SDS011;55741;53.252;5.788;2022-07-05T07:29:35;8.85;;;1.60;;
54123;SDS011;55741;53.252;5.788;2022-07-05T07:32:03;5.78;;;1.42;;
54123;SDS011;55741;53.252;5.788;2022-07-05T07:34:31;7.03;;;1.63;;
54123;SDS011;55741;53.252;5.788;2022-07-05T07:36:57;8.30;;;1.63;;
54123;SDS011;55741;53.252;5.788;2022-07-05T07:39:24;8.45;;;2.10;;
54123;SDS011;55741;53.252;5.788;2022-07-05T07:41:50;7.35;;;1.73;;
54123;SDS011;55741;53.252;5.788;2022-07-05T07:44:17;6.13;;;1.40;;
54123;SDS011;55741;53.252;5.788;2022-07-05T07:46:43;5.82;;;1.30;;
54123;SDS011;55741;53.252;5.788;2022-07-05T07:49:09;7.75;;;1.60;;
54123;SDS011;55741;53.252;5.788;2022-07-05T07:51:36;10.30;;;1.77;;
54123;SDS011;55741;53.252;5.788;2022-07-05T07:54:04;7.55;;;1.67;;
54123;SDS011;55741;53.252;5.788;2022-07-05T07:56:30;8.95;;;2.50;;
54123;SDS011;55741;53.252;5.788;2022-07-05T07:58:56;7.03;;;2.25;;
54123;SDS011;55741;53.252;5.788;2022-07-05T08:01:23;9.13;;;2.22;;
54123;SDS011;55741;53.252;5.788;2022-07-05T08:03:50;7.90;;;1.80;;
54123;SDS011;55741;53.252;5.788;2022-07-05T08:06:17;8.23;;;1.50;;
54123;SDS011;55741;53.252;5.788;2022-07-05T08:08:43;5.07;;;1.30;;
54123;SDS011;55741;53.252;5.788;2022-07-05T08:11:13;7.20;;;1.63;;
54123;SDS011;55741;53.252;5.788;2022-07-05T08:13:39;6.15;;;1.60;;
54123;SDS011;55741;53.252;5.788;2022-07-05T08:16:06;7.28;;;1.77;;
54123;SDS011;55741;53.252;5.788;2022-07-05T08:18:36;7.05;;;1.55;;
54123;SDS011;55741;53.252;5.788;2022-07-05T08:21:20;5.78;;;1.52;;
54123;SDS011;55741;53.252;5.788;2022-07-05T08:24:09;11.20;;;2.05;;
54123;SDS011;55741;53.252;5.788;2022-07-05T08:26:37;5.55;;;1.50;;
54123;SDS011;55741;53.252;5.788;2022-07-05T08:29:05;6.30;;;1.55;;
54123;SDS011;55741;53.252;5.788;2022-07-05T08:31:44;7.40;;;1.50;;
54123;SDS011;55741;53.252;5.788;2022-07-05T08:34:12;4.95;;;1.50;;
54123;SDS011;55741;53.252;5.788;2022-07-05T08:36:38;5.10;;;1.73;;
54123;SDS011;55741;53.252;5.788;2022-07-05T08:39:07;5.80;;;1.75;;
54123;SDS011;55741;53.252;5.788;2022-07-05T08:41:39;5.05;;;1.65;;
54123;SDS011;55741;53.252;5.788;2022-07-05T08:44:07;15.20;;;1.50;;
54123;SDS011;55741;53.252;5.788;2022-07-05T08:46:38;6.18;;;2.05;;
54123;SDS011;55741;53.252;5.788;2022-07-05T08:49:06;6.82;;;1.85;;
54123;SDS011;55741;53.252;5.788;2022-07-05T08:51:36;3.67;;;1.23;;
54123;SDS011;55741;53.252;5.788;2022-07-05T08:54:09;4.25;;;1.42;;
54123;SDS011;55741;53.252;5.788;2022-07-05T08:56:36;7.57;;;1.95;;
54123;SDS011;55741;53.252;5.788;2022-07-05T08:59:03;7.18;;;1.67;;
54123;SDS011;55741;53.252;5.788;2022-07-05T09:01:29;5.55;;;1.80;;
54123;SDS011;55741;53.252;5.788;2022-07-05T09:04:05;8.35;;;1.65;;
54123;SDS011;55741;53.252;5.788;2022-07-05T09:06:35;7.28;;;1.65;;
54123;SDS011;55741;53.252;5.788;2022-07-05T09:09:04;4.85;;;1.40;;
54123;SDS011;55741;53.252;5.788;2022-07-05T09:11:38;3.65;;;1.70;;
54123;SDS011;55741;53.252;5.788;2022-07-05T09:14:22;6.15;;;1.60;;
54123;SDS011;55741;53.252;5.788;2022-07-05T09:16:50;6.88;;;1.60;;
54123;SDS011;55741;53.252;5.788;2022-07-05T09:19:15;8.55;;;2.15;;
54123;SDS011;55741;53.252;5.788;2022-07-05T09:21:42;4.03;;;1.58;;
54123;SDS011;55741;53.252;5.788;2022-07-05T09:24:08;5.00;;;1.80;;
54123;SDS011;55741;53.252;5.788;2022-07-05T09:26:40;7.68;;;1.58;;
54123;SDS011;55741;53.252;5.788;2022-07-05T09:29:09;5.82;;;1.70;;
54123;SDS011;55741;53.252;5.788;2022-07-05T09:31:37;6.88;;;1.63;;
54123;SDS011;55741;53.252;5.788;2022-07-05T09:34:09;7.43;;;1.67;;
54123;SDS011;55741;53.252;5.788;2022-07-05T09:44:41;6.53;;;1.38;;
54123;SDS011;55741;53.252;5.788;2022-07-05T09:47:09;6.57;;;2.10;;
54123;SDS011;55741;53.252;5.788;2022-07-05T09:49:42;3.30;;;1.30;;
54123;SDS011;55741;53.252;5.788;2022-07-05T09:52:10;4.10;;;1.33;;
54123;SDS011;55741;53.252;5.788;2022-07-05T09:54:39;6.25;;;1.77;;
54123;SDS011;55741;53.252;5.788;2022-07-05T09:57:05;5.35;;;1.40;;
54123;SDS011;55741;53.252;5.788;2022-07-05T09:59:31;3.30;;;1.13;;
54123;SDS011;55741;53.252;5.788;2022-07-05T10:01:57;5.38;;;1.52;;
54123;SDS011;55741;53.252;5.788;2022-07-05T10:04:23;5.18;;;1.40;;
54123;SDS011;55741;53.252;5.788;2022-07-05T10:06:49;5.80;;;1.60;;
54123;SDS011;55741;53.252;5.788;2022-07-05T10:09:15;6.88;;;1.58;;
54123;SDS011;55741;53.252;5.788;2022-07-05T10:11:43;5.65;;;1.70;;
54123;SDS011;55741;53.252;5.788;2022-07-05T10:14:18;4.30;;;1.27;;
54123;SDS011;55741;53.252;5.788;2022-07-05T10:16:46;5.53;;;1.13;;
54123;SDS011;55741;53.252;5.788;2022-07-05T10:19:18;4.82;;;1.40;;
54123;SDS011;55741;53.252;5.788;2022-07-05T10:21:45;7.40;;;1.40;;
54123;SDS011;55741;53.252;5.788;2022-07-05T10:24:12;4.47;;;1.30;;
54123;SDS011;55741;53.252;5.788;2022-07-05T10:26:40;6.68;;;1.60;;
54123;SDS011;55741;53.252;5.788;2022-07-05T10:29:07;7.55;;;1.85;;
54123;SDS011;55741;53.252;5.788;2022-07-05T10:31:34;8.73;;;1.95;;
54123;SDS011;55741;53.252;5.788;2022-07-05T10:34:01;5.00;;;1.55;;
54123;SDS011;55741;53.252;5.788;2022-07-05T10:36:32;7.68;;;1.70;;
54123;SDS011;55741;53.252;5.788;2022-07-05T10:39:00;6.68;;;1.60;;
54123;SDS011;55741;53.252;5.788;2022-07-05T10:41:26;8.05;;;2.22;;
54123;SDS011;55741;53.252;5.788;2022-07-05T10:43:54;5.95;;;1.77;;
54123;SDS011;55741;53.252;5.788;2022-07-05T10:46:34;7.47;;;1.90;;
54123;SDS011;55741;53.252;5.788;2022-07-05T10:49:10;5.50;;;1.58;;
54123;SDS011;55741;53.252;5.788;2022-07-05T10:51:41;7.50;;;1.98;;
54123;SDS011;55741;53.252;5.788;2022-07-05T10:54:08;6.35;;;1.70;;
54123;SDS011;55741;53.252;5.788;2022-07-05T10:56:36;5.28;;;1.52;;
54123;SDS011;55741;53.252;5.788;2022-07-05T10:59:04;7.30;;;1.77;;
54123;SDS011;55741;53.252;5.788;2022-07-05T11:01:41;5.78;;;1.83;;
54123;SDS011;55741;53.252;5.788;2022-07-05T11:04:11;6.03;;;1.63;;
54123;SDS011;55741;53.252;5.788;2022-07-05T11:06:48;9.32;;;1.92;;
54123;SDS011;55741;53.252;5.788;2022-07-05T11:09:18;8.90;;;2.40;;
54123;SDS011;55741;53.252;5.788;2022-07-05T11:12:01;4.38;;;1.35;;
54123;SDS011;55741;53.252;5.788;2022-07-05T11:17:14;4.63;;;1.58;;
54123;SDS011;55741;53.252;5.788;2022-07-05T11:22:31;7.10;;;2.00;;
54123;SDS011;55741;53.252;5.788;2022-07-05T11:24:59;6.25;;;1.92;;
54123;SDS011;55741;53.252;5.788;2022-07-05T11:27:25;6.63;;;1.80;;
54123;SDS011;55741;53.252;5.788;2022-07-05T11:29:52;5.80;;;1.50;;
54123;SDS011;55741;53.252;5.788;2022-07-05T11:32:19;7.28;;;2.00;;
54123;SDS011;55741;53.252;5.788;2022-07-05T11:35:15;8.10;;;1.80;;
54123;SDS011;55741;53.252;5.788;2022-07-05T11:40:44;9.30;;;2.50;;
54123;SDS011;55741;53.252;5.788;2022-07-05T11:43:10;7.63;;;1.77;;
54123;SDS011;55741;53.252;5.788;2022-07-05T11:45:36;6.97;;;1.98;;
54123;SDS011;55741;53.252;5.788;2022-07-05T11:48:04;8.40;;;2.00;;
54123;SDS011;55741;53.252;5.788;2022-07-05T11:50:32;5.07;;;1.77;;
54123;SDS011;55741;53.252;5.788;2022-07-05T11:52:59;7.45;;;1.77;;
54123;SDS011;55741;53.252;5.788;2022-07-05T11:55:29;6.32;;;1.70;;
54123;SDS011;55741;53.252;5.788;2022-07-05T11:57:57;6.80;;;2.00;;
54123;SDS011;55741;53.252;5.788;2022-07-05T12:00:27;6.32;;;1.67;;
54123;SDS011;55741;53.252;5.788;2022-07-05T12:02:55;5.40;;;1.30;;
54123;SDS011;55741;53.252;5.788;2022-07-05T12:05:21;4.22;;;1.48;;
54123;SDS011;55741;53.252;5.788;2022-07-05T12:07:50;5.60;;;1.80;;
54123;SDS011;55741;53.252;5.788;2022-07-05T12:10:17;4.18;;;1.42;;
54123;SDS011;55741;53.252;5.788;2022-07-05T12:13:08;5.57;;;1.55;;
54123;SDS011;55741;53.252;5.788;2022-07-05T12:15:35;5.75;;;1.55;;
54123;SDS011;55741;53.252;5.788;2022-07-05T12:18:02;3.67;;;1.42;;
54123;SDS011;55741;53.252;5.788;2022-07-05T12:20:32;4.38;;;1.20;;
54123;SDS011;55741;53.252;5.788;2022-07-05T12:23:01;4.95;;;1.60;;
54123;SDS011;55741;53.252;5.788;2022-07-05T12:25:27;5.20;;;1.63;;
54123;SDS011;55741;53.252;5.788;2022-07-05T12:27:55;5.22;;;1.45;;
54123;SDS011;55741;53.252;5.788;2022-07-05T12:30:22;6.13;;;1.40;;
54123;SDS011;55741;53.252;5.788;2022-07-05T12:33:05;6.47;;;1.55;;
54123;SDS011;55741;53.252;5.788;2022-07-05T12:38:11;4.55;;;1.60;;
54123;SDS011;55741;53.252;5.788;2022-07-05T12:40:47;6.70;;;1.42;;
54123;SDS011;55741;53.252;5.788;2022-07-05T12:43:21;4.60;;;1.50;;
54123;SDS011;55741;53.252;5.788;2022-07-05T12:48:32;4.88;;;1.70;;
54123;SDS011;55741;53.252;5.788;2022-07-05T12:51:03;7.22;;;1.55;;
54123;SDS011;55741;53.252;5.788;2022-07-05T12:53:34;5.05;;;1.58;;
54123;SDS011;55741;53.252;5.788;2022-07-05T12:56:29;3.47;;;1.40;;
54123;SDS011;55741;53.252;5.788;2022-07-05T12:59:13;4.50;;;1.47;;
54123;SDS011;55741;53.252;5.788;2022-07-05T13:01:40;4.53;;;1.48;;
54123;SDS011;55741;53.252;5.788;2022-07-05T13:04:08;6.03;;;1.90;;
54123;SDS011;55741;53.252;5.788;2022-07-05T13:09:16;7.07;;;2.00;;
54123;SDS011;55741;53.252;5.788;2022-07-05T13:14:47;5.30;;;1.63;;
54123;SDS011;55741;53.252;5.788;2022-07-05T13:17:15;7.57;;;1.60;;
54123;SDS011;55741;53.252;5.788;2022-07-05T13:19:43;4.20;;;1.20;;
54123;SDS011;55741;53.252;5.788;2022-07-05T13:22:11;5.25;;;1.50;;
54123;SDS011;55741;53.252;5.788;2022-07-05T13:24:37;6.30;;;1.50;;
54123;SDS011;55741;53.252;5.788;2022-07-05T13:27:04;3.95;;;1.30;;
54123;SDS011;55741;53.252;5.788;2022-07-05T13:29:31;7.30;;;1.85;;
54123;SDS011;55741;53.252;5.788;2022-07-05T13:31:58;4.32;;;1.50;;
54123;SDS011;55741;53.252;5.788;2022-07-05T13:34:24;4.60;;;2.00;;
54123;SDS011;55741;53.252;5.788;2022-07-05T13:36:54;6.90;;;1.98;;
54123;SDS011;55741;53.252;5.788;2022-07-05T13:39:21;5.68;;;1.83;;
54123;SDS011;55741;53.252;5.788;2022-07-05T13:41:48;5.50;;;1.60;;
54123;SDS011;55741;53.252;5.788;2022-07-05T13:44:16;6.20;;;1.50;;
54123;SDS011;55741;53.252;5.788;2022-07-05T13:46:43;6.13;;;1.75;;
54123;SDS011;55741;53.252;5.788;2022-07-05T13:49:10;4.70;;;1.48;;
54123;SDS011;55741;53.252;5.788;2022-07-05T13:51:36;5.00;;;1.50;;
54123;SDS011;55741;53.252;5.788;2022-07-05T13:54:02;4.72;;;1.67;;
54123;SDS011;55741;53.252;5.788;2022-07-05T13:56:28;5.85;;;1.58;;
54123;SDS011;55741;53.252;5.788;2022-07-05T13:58:54;5.10;;;1.38;;
54123;SDS011;55741;53.252;5.788;2022-07-05T14:01:21;3.97;;;1.60;;
54123;SDS011;55741;53.252;5.788;2022-07-05T14:03:52;6.03;;;1.70;;
54123;SDS011;55741;53.252;5.788;2022-07-05T14:06:19;4.13;;;1.70;;
54123;SDS011;55741;53.252;5.788;2022-07-05T14:08:45;4.47;;;1.38;;
54123;SDS011;55741;53.252;5.788;2022-07-05T14:11:11;3.45;;;1.25;;
54123;SDS011;55741;53.252;5.788;2022-07-05T14:13:37;6.05;;;1.63;;
54123;SDS011;55741;53.252;5.788;2022-07-05T14:16:06;6.95;;;1.60;;
54123;SDS011;55741;53.252;5.788;2022-07-05T14:18:32;6.05;;;1.55;;
54123;SDS011;55741;53.252;5.788;2022-07-05T14:20:58;6.53;;;2.13;;
54123;SDS011;55741;53.252;5.788;2022-07-05T14:23:24;7.80;;;1.58;;
54123;SDS011;55741;53.252;5.788;2022-07-05T14:25:50;6.60;;;1.60;;
54123;SDS011;55741;53.252;5.788;2022-07-05T14:28:17;5.82;;;1.70;;
54123;SDS011;55741;53.252;5.788;2022-07-05T14:30:44;6.15;;;1.85;;
54123;SDS011;55741;53.252;5.788;2022-07-05T14:33:12;3.03;;;1.20;;
54123;SDS011;55741;53.252;5.788;2022-07-05T14:35:39;3.67;;;1.40;;
54123;SDS011;55741;53.252;5.788;2022-07-05T14:38:06;3.65;;;1.23;;
54123;SDS011;55741;53.252;5.788;2022-07-05T14:40:32;3.22;;;1.20;;
54123;SDS011;55741;53.252;5.788;2022-07-05T14:42:59;5.15;;;1.63;;
54123;SDS011;55741;53.252;5.788;2022-07-05T14:45:26;2.90;;;1.23;;
54123;SDS011;55741;53.252;5.788;2022-07-05T14:47:53;5.20;;;1.58;;
54123;SDS011;55741;53.252;5.788;2022-07-05T14:50:19;3.97;;;1.40;;
54123;SDS011;55741;53.252;5.788;2022-07-05T14:52:47;6.47;;;1.77;;
54123;SDS011;55741;53.252;5.788;2022-07-05T14:55:14;5.10;;;1.50;;
54123;SDS011;55741;53.252;5.788;2022-07-05T14:57:41;3.75;;;1.40;;
54123;SDS011;55741;53.252;5.788;2022-07-05T15:00:08;15.60;;;3.25;;
54123;SDS011;55741;53.252;5.788;2022-07-05T15:02:35;3.95;;;1.40;;
54123;SDS011;55741;53.252;5.788;2022-07-05T15:05:02;10.38;;;2.17;;
54123;SDS011;55741;53.252;5.788;2022-07-05T15:07:29;11.65;;;2.00;;
54123;SDS011;55741;53.252;5.788;2022-07-05T15:09:56;4.85;;;1.27;;
54123;SDS011;55741;53.252;5.788;2022-07-05T15:12:22;5.93;;;1.83;;
54123;SDS011;55741;53.252;5.788;2022-07-05T15:14:48;5.40;;;1.88;;
54123;SDS011;55741;53.252;5.788;2022-07-05T15:17:14;3.70;;;1.30;;
54123;SDS011;55741;53.252;5.788;2022-07-05T15:19:40;4.05;;;1.13;;
54123;SDS011;55741;53.252;5.788;2022-07-05T15:22:06;4.13;;;1.40;;